createdAt,value
2018-11-06T00:02:22.070Z,19.10
2018-11-06T00:04:56.287Z,19.50
2018-11-06T00:07:25.258Z,18.57
2018-11-06T00:09:54.240Z,19.20
2018-11-06T00:12:23.251Z,18.43
2018-11-06T00:14:52.246Z,18.70
2018-11-06T00:17:21.210Z,18.53
2018-11-06T00:19:50.326Z,19.67
2018-11-06T00:22:19.337Z,18.63
2018-11-06T00:24:48.334Z,18.97
2018-11-06T00:27:17.310Z,18.07
2018-11-06T00:29:46.445Z,18.23
2018-11-06T00:32:15.414Z,16.60
2018-11-06T00:34:44.415Z,17.37
2018-11-06T00:37:13.391Z,16.40
2018-11-06T00:39:42.399Z,15.73
2018-11-06T00:42:11.370Z,15.47
2018-11-06T00:44:40.366Z,14.87
2018-11-06T00:47:09.407Z,14.60
2018-11-06T00:49:38.398Z,17.13
2018-11-06T00:52:07.670Z,16.47
2018-11-06T00:54:36.670Z,39.10
2018-11-06T00:57:05.649Z,24.80
2018-11-06T00:59:34.633Z,27.60
2018-11-06T01:02:03.706Z,19.40
2018-11-06T01:04:32.695Z,22.97
2018-11-06T01:07:01.692Z,18.13
2018-11-06T01:09:30.658Z,16.57
2018-11-06T01:11:59.661Z,17.47
2018-11-06T01:14:28.674Z,16.37
2018-11-06T01:16:57.702Z,15.43
2018-11-06T01:19:26.715Z,14.20
2018-11-06T01:21:55.691Z,15.57
2018-11-06T01:24:24.678Z,15.40
2018-11-06T01:26:53.662Z,16.60
2018-11-06T01:29:22.682Z,20.20
2018-11-06T01:31:51.694Z,20.60
2018-11-06T01:34:20.958Z,18.03
2018-11-06T01:36:49.945Z,16.23
2018-11-06T01:39:18.948Z,17.97
2018-11-06T01:41:47.999Z,17.87
2018-11-06T01:44:17.597Z,17.93
2018-11-06T01:46:47.398Z,16.97
2018-11-06T01:49:16.376Z,17.33
2018-11-06T01:51:45.468Z,17.27
2018-11-06T01:54:14.454Z,17.50
2018-11-06T01:56:43.449Z,15.30
2018-11-06T01:59:12.426Z,15.57
2018-11-06T02:01:41.393Z,15.50
2018-11-06T02:04:10.383Z,16.70
2018-11-06T02:06:39.403Z,24.53
2018-11-06T02:09:09.262Z,23.50
2018-11-06T02:11:38.239Z,34.83
2018-11-06T02:14:07.466Z,20.83
2018-11-06T02:16:36.522Z,22.53
2018-11-06T02:19:05.905Z,23.97
2018-11-06T02:21:34.921Z,24.30
2018-11-06T02:24:03.979Z,19.13
2018-11-06T02:26:32.938Z,20.40
2018-11-06T02:29:01.942Z,21.57
2018-11-06T02:31:30.929Z,22.43
2018-11-06T02:33:59.956Z,19.50
2018-11-06T02:36:28.933Z,19.47
2018-11-06T02:38:57.896Z,19.50
2018-11-06T02:41:26.933Z,20.83
2018-11-06T02:43:55.864Z,19.37
2018-11-06T02:46:25.121Z,19.83
2018-11-06T02:48:54.117Z,19.33
2018-11-06T02:51:23.068Z,21.43
2018-11-06T02:53:52.059Z,22.60
2018-11-06T02:56:21.120Z,23.40
2018-11-06T02:58:50.111Z,20.53
2018-11-06T03:01:19.097Z,22.33
2018-11-06T03:03:48.061Z,18.97
2018-11-06T03:06:17.085Z,18.47
2018-11-06T03:08:46.029Z,18.63
2018-11-06T03:11:15.005Z,18.10
2018-11-06T03:13:43.958Z,17.90
2018-11-06T03:16:12.961Z,16.40
2018-11-06T03:18:41.919Z,16.60
2018-11-06T03:21:10.902Z,15.33
2018-11-06T03:23:39.861Z,15.97
2018-11-06T03:26:08.982Z,17.30
2018-11-06T03:28:37.958Z,16.10
2018-11-06T03:31:06.988Z,16.60
2018-11-06T03:33:35.942Z,16.67
2018-11-06T03:36:05.714Z,16.20
2018-11-06T03:38:34.656Z,15.63
2018-11-06T03:41:03.738Z,16.30
2018-11-06T03:43:32.693Z,14.97
2018-11-06T03:46:01.676Z,15.27
2018-11-06T03:48:30.646Z,16.90
2018-11-06T03:50:59.630Z,15.17
2018-11-06T03:53:28.719Z,14.53
2018-11-06T03:55:57.699Z,14.30
2018-11-06T03:58:26.654Z,13.97
2018-11-06T04:00:55.630Z,13.37
2018-11-06T04:03:24.578Z,15.00
2018-11-06T04:05:53.561Z,14.13
2018-11-06T04:08:22.548Z,15.43
2018-11-06T04:10:51.518Z,14.57
2018-11-06T04:13:20.485Z,16.17
2018-11-06T04:15:49.457Z,15.10
2018-11-06T04:18:18.405Z,14.67
2018-11-06T04:20:47.386Z,14.13
2018-11-06T04:23:16.333Z,14.53
2018-11-06T04:25:45.305Z,13.40
2018-11-06T04:28:14.285Z,13.90
2018-11-06T04:30:43.270Z,14.33
2018-11-06T04:33:12.217Z,16.80
2018-11-06T04:35:41.194Z,16.40
2018-11-06T04:38:10.318Z,20.60
2018-11-06T04:40:39.325Z,18.53
2018-11-06T04:43:08.285Z,15.53
2018-11-06T04:45:37.270Z,17.43
2018-11-06T04:48:06.530Z,16.33
2018-11-06T04:50:35.507Z,16.83
2018-11-06T04:53:04.553Z,16.53
2018-11-06T04:55:33.550Z,16.73
2018-11-06T04:58:02.528Z,15.57
2018-11-06T05:00:31.529Z,13.97
2018-11-06T05:03:00.500Z,16.73
2018-11-06T05:05:29.486Z,17.77
2018-11-06T05:07:58.453Z,16.47
2018-11-06T05:10:27.650Z,14.30
2018-11-06T05:12:56.625Z,13.07
2018-11-06T05:15:25.612Z,11.87
2018-11-06T05:17:54.579Z,14.43
2018-11-06T05:20:23.560Z,14.30
2018-11-06T05:22:52.540Z,13.27
2018-11-06T05:25:21.535Z,14.70
2018-11-06T05:27:50.480Z,14.93
2018-11-06T05:30:19.549Z,15.67
2018-11-06T05:32:48.550Z,14.03
2018-11-06T05:35:17.499Z,16.57
2018-11-06T05:37:46.446Z,18.30
2018-11-06T05:40:26.997Z,19.60
2018-11-06T05:42:55.957Z,21.20
2018-11-06T05:45:24.970Z,18.53
2018-11-06T05:47:53.910Z,18.73
2018-11-06T05:50:22.965Z,17.80
2018-11-06T05:52:51.915Z,16.07
2018-11-06T05:55:20.885Z,16.30
2018-11-06T05:57:49.866Z,16.20
2018-11-06T06:00:18.887Z,16.00
2018-11-06T06:02:47.813Z,17.37
2018-11-06T06:05:16.845Z,16.70
2018-11-06T06:07:45.802Z,16.87
2018-11-06T06:10:14.809Z,17.70
2018-11-06T06:12:43.854Z,19.67
2018-11-06T06:15:12.840Z,17.80
2018-11-06T06:17:41.798Z,19.57
2018-11-06T06:20:10.786Z,18.33
2018-11-06T06:22:39.814Z,18.87
2018-11-06T06:25:09.045Z,18.00
2018-11-06T06:27:38.005Z,16.70
2018-11-06T06:30:09.502Z,18.07
2018-11-06T06:32:38.474Z,16.53
2018-11-06T06:35:07.491Z,15.13
2018-11-06T06:37:36.561Z,15.63
2018-11-06T06:40:07.471Z,15.50
2018-11-06T06:42:36.345Z,15.37
2018-11-06T06:45:06.737Z,16.73
2018-11-06T06:47:35.772Z,15.73
2018-11-06T06:50:06.801Z,17.27
2018-11-06T06:52:35.822Z,19.23
2018-11-06T06:55:06.105Z,17.40
2018-11-06T06:57:35.297Z,15.97
2018-11-06T07:00:04.268Z,13.93
2018-11-06T07:02:33.278Z,14.87
2018-11-06T07:05:02.263Z,18.63
2018-11-06T07:07:31.218Z,20.10
2018-11-06T07:10:00.194Z,19.37
2018-11-06T07:12:29.334Z,17.50
2018-11-06T07:14:58.314Z,16.07
2018-11-06T07:17:27.380Z,15.33
2018-11-06T07:19:56.371Z,15.83
2018-11-06T07:22:25.340Z,17.17
2018-11-06T07:24:54.303Z,15.47
2018-11-06T07:27:23.265Z,14.67
2018-11-06T07:29:52.426Z,14.43
2018-11-06T07:32:21.381Z,14.33
2018-11-06T07:34:50.447Z,16.73
2018-11-06T07:37:19.318Z,16.50
2018-11-06T07:39:48.302Z,17.53
2018-11-06T07:42:17.257Z,15.97
2018-11-06T07:44:46.226Z,15.97
2018-11-06T07:47:15.194Z,16.60
2018-11-06T07:49:44.269Z,14.87
2018-11-06T07:52:13.249Z,14.93
2018-11-06T07:54:42.228Z,15.83
2018-11-06T07:57:11.191Z,17.17
2018-11-06T07:59:40.179Z,14.93
2018-11-06T08:02:09.172Z,16.77
2018-11-06T08:04:38.125Z,19.63
2018-11-06T08:07:07.117Z,17.10
2018-11-06T08:09:36.177Z,22.77
2018-11-06T08:12:05.629Z,22.60
2018-11-06T08:14:34.797Z,20.33
2018-11-06T08:17:03.750Z,18.80
2018-11-06T08:19:32.709Z,23.23
2018-11-06T08:22:01.766Z,17.83
2018-11-06T08:24:30.760Z,18.87
2018-11-06T08:26:59.922Z,17.40
2018-11-06T08:29:28.906Z,19.27
2018-11-06T08:31:58.259Z,18.50
2018-11-06T08:34:26.826Z,18.83
2018-11-06T08:36:55.811Z,18.13
2018-11-06T08:39:24.749Z,19.27
2018-11-06T08:41:53.819Z,23.30
2018-11-06T08:44:22.758Z,21.13
2018-11-06T08:46:51.739Z,19.57
2018-11-06T08:49:20.680Z,18.90
2018-11-06T08:51:49.696Z,22.13
2018-11-06T08:54:18.629Z,25.50
2018-11-06T08:56:47.669Z,25.10
2018-11-06T08:59:16.626Z,19.90
2018-11-06T09:01:45.648Z,20.30
2018-11-06T09:04:14.570Z,19.50
2018-11-06T09:06:43.657Z,20.80
2018-11-06T09:09:12.627Z,20.00
2018-11-06T09:11:41.609Z,20.10
2018-11-06T09:14:10.560Z,19.27
2018-11-06T09:16:39.598Z,19.40
2018-11-06T09:19:09.023Z,20.30
2018-11-06T09:21:38.021Z,20.67
2018-11-06T09:24:07.109Z,19.50
2018-11-06T09:26:36.254Z,20.23
2018-11-06T09:29:05.654Z,19.20
2018-11-06T09:31:34.583Z,20.50
2018-11-06T09:34:03.545Z,19.20
2018-11-06T09:36:32.609Z,19.57
2018-11-06T09:39:01.585Z,19.90
2018-11-06T09:41:30.563Z,19.10
2018-11-06T09:43:59.528Z,18.57
2018-11-06T09:46:28.514Z,17.00
2018-11-06T09:48:57.546Z,17.23
2018-11-06T09:51:26.526Z,16.70
2018-11-06T09:53:55.489Z,18.07
2018-11-06T09:56:24.466Z,19.20
2018-11-06T09:58:53.438Z,18.30
2018-11-06T10:01:22.438Z,19.03
2018-11-06T10:03:51.471Z,17.90
2018-11-06T10:06:20.564Z,17.97
2018-11-06T10:08:49.487Z,22.03
2018-11-06T10:11:18.448Z,24.50
2018-11-06T10:13:47.485Z,22.37
2018-11-06T10:16:16.480Z,21.57
2018-11-06T10:18:45.448Z,20.97
2018-11-06T10:21:14.483Z,19.90
2018-11-06T10:23:43.387Z,20.37
2018-11-06T10:26:12.366Z,19.97
2018-11-06T10:28:41.359Z,19.60
2018-11-06T10:31:10.337Z,24.17
2018-11-06T10:33:39.329Z,26.17
2018-11-06T10:36:08.330Z,27.00
2018-11-06T10:38:37.314Z,26.87
2018-11-06T10:41:06.303Z,25.70
2018-11-06T10:43:41.645Z,25.20
2018-11-06T10:46:10.601Z,27.70
2018-11-06T10:48:39.558Z,26.80
2018-11-06T10:51:08.547Z,27.40
2018-11-06T10:53:37.535Z,26.03
2018-11-06T10:56:06.518Z,26.07
2018-11-06T10:58:35.713Z,25.80
2018-11-06T11:01:10.272Z,22.47
2018-11-06T11:03:45.457Z,21.20
2018-11-06T11:06:14.456Z,21.83
2018-11-06T11:08:43.474Z,19.97
2018-11-06T11:11:12.443Z,21.80
2018-11-06T11:13:41.436Z,20.57
2018-11-06T11:16:10.421Z,21.37
2018-11-06T11:18:39.409Z,21.60
2018-11-06T11:21:08.365Z,21.27
2018-11-06T11:23:37.351Z,22.03
2018-11-06T11:26:06.333Z,21.10
2018-11-06T11:28:35.597Z,20.00
2018-11-06T11:31:04.917Z,22.60
2018-11-06T11:33:33.869Z,22.23
2018-11-06T11:36:02.861Z,21.87
2018-11-06T11:38:31.810Z,22.93
2018-11-06T11:41:00.785Z,22.93
2018-11-06T11:43:29.734Z,23.20
2018-11-06T11:45:58.744Z,20.70
2018-11-06T11:48:27.688Z,22.00
2018-11-06T11:50:56.654Z,22.47
2018-11-06T11:53:25.653Z,23.30
2018-11-06T11:55:54.633Z,22.77
2018-11-06T11:58:23.627Z,22.70
2018-11-06T12:00:53.434Z,22.53
2018-11-06T12:03:22.402Z,23.10
2018-11-06T12:05:51.382Z,22.13
2018-11-06T12:08:20.639Z,22.43
2018-11-06T12:10:49.623Z,22.70
2018-11-06T12:13:18.577Z,22.90
2018-11-06T12:15:47.557Z,23.37
2018-11-06T12:18:16.582Z,23.20
2018-11-06T12:20:45.509Z,21.80
2018-11-06T12:23:14.485Z,22.03
2018-11-06T12:25:43.715Z,22.93
2018-11-06T12:28:12.518Z,25.10
2018-11-06T12:30:41.499Z,24.60
2018-11-06T12:33:10.463Z,26.07
2018-11-06T12:35:39.452Z,26.40
2018-11-06T12:38:08.423Z,27.07
2018-11-06T12:40:37.477Z,27.00
2018-11-06T12:43:06.537Z,27.70
2018-11-06T12:45:35.435Z,26.03
2018-11-06T12:48:04.634Z,25.17
2018-11-06T12:50:33.614Z,25.97
2018-11-06T12:53:02.583Z,25.77
2018-11-06T12:55:31.710Z,25.87
2018-11-06T12:58:00.673Z,26.37
2018-11-06T13:00:29.678Z,26.27
2018-11-06T13:02:58.641Z,26.97
2018-11-06T13:05:27.693Z,26.40
2018-11-06T13:07:56.649Z,25.57
2018-11-06T13:10:25.630Z,26.67
2018-11-06T13:12:54.597Z,26.70
2018-11-06T13:15:23.642Z,26.00
2018-11-06T13:17:52.598Z,26.87
2018-11-06T13:20:21.583Z,27.23
2018-11-06T13:22:50.561Z,26.53
2018-11-06T13:25:19.553Z,27.07
2018-11-06T13:27:48.537Z,27.03
2018-11-06T13:30:18.664Z,26.13
2018-11-06T13:32:48.355Z,25.80
2018-11-06T13:35:17.353Z,26.07
2018-11-06T13:37:46.309Z,24.60
2018-11-06T13:40:16.177Z,25.23
2018-11-06T13:42:45.705Z,24.20
2018-11-06T13:45:21.322Z,24.23
2018-11-06T13:47:50.196Z,23.43
2018-11-06T13:50:19.334Z,25.00
2018-11-06T13:52:48.414Z,24.60
2018-11-06T13:55:17.778Z,24.03
2018-11-06T13:57:47.142Z,24.50
2018-11-06T14:00:18.665Z,23.87
2018-11-06T14:02:47.625Z,23.83
2018-11-06T14:05:16.874Z,24.03
2018-11-06T14:07:46.049Z,23.80
2018-11-06T14:10:15.042Z,23.73
2018-11-06T14:12:44.895Z,24.77
2018-11-06T14:15:13.849Z,24.27
2018-11-06T14:17:42.845Z,23.83
2018-11-06T14:20:13.174Z,24.70
2018-11-06T14:22:42.397Z,23.93
2018-11-06T14:25:11.366Z,25.10
2018-11-06T14:27:40.512Z,24.17
2018-11-06T14:30:11.339Z,24.57
2018-11-06T14:32:40.649Z,24.30
2018-11-06T14:35:11.170Z,24.30
2018-11-06T14:37:40.642Z,23.57
2018-11-06T14:40:10.879Z,24.03
2018-11-06T14:42:40.706Z,24.87
2018-11-06T14:45:10.966Z,23.80
2018-11-06T14:47:39.998Z,24.83
2018-11-06T14:50:09.545Z,24.27
2018-11-06T14:52:38.677Z,25.13
2018-11-06T14:55:08.846Z,27.57
2018-11-06T14:57:37.907Z,27.93
2018-11-06T15:00:08.980Z,28.73
2018-11-06T15:02:37.958Z,29.23
2018-11-06T15:05:06.990Z,27.70
2018-11-06T15:07:35.983Z,27.03
2018-11-06T15:10:06.032Z,26.47
2018-11-06T15:12:35.043Z,25.20
2018-11-06T15:15:03.966Z,25.10
2018-11-06T15:17:32.934Z,25.03
2018-11-06T15:20:02.022Z,25.73
2018-11-06T15:22:31.022Z,25.77
2018-11-06T15:24:59.977Z,25.57
2018-11-06T15:27:28.993Z,26.07
2018-11-06T15:29:57.954Z,28.27
2018-11-06T15:32:27.039Z,26.60
2018-11-06T15:34:55.902Z,25.23
2018-11-06T15:37:24.877Z,24.80
2018-11-06T15:39:53.925Z,23.80
2018-11-06T15:42:22.906Z,23.93
2018-11-06T15:44:51.862Z,24.30
2018-11-06T15:47:20.882Z,23.70
2018-11-06T15:49:49.834Z,24.80
2018-11-06T15:52:18.994Z,24.27
2018-11-06T15:54:47.960Z,27.93
2018-11-06T15:57:16.942Z,27.30
2018-11-06T15:59:45.893Z,35.73
2018-11-06T16:02:14.866Z,34.07
2018-11-06T16:04:43.938Z,33.80
2018-11-06T16:07:12.902Z,34.80
2018-11-06T16:09:41.861Z,33.43
2018-11-06T16:12:10.883Z,32.20
2018-11-06T16:14:39.871Z,32.67
2018-11-06T16:17:08.861Z,32.63
2018-11-06T16:19:37.860Z,33.93
2018-11-06T16:22:07.002Z,33.17
2018-11-06T16:24:35.966Z,35.80
2018-11-06T16:27:04.978Z,36.67
2018-11-06T16:29:33.951Z,40.23
2018-11-06T16:32:03.026Z,41.27
2018-11-06T16:34:31.998Z,47.40
2018-11-06T16:37:00.974Z,47.53
2018-11-06T16:39:29.929Z,51.87
2018-11-06T16:41:58.898Z,51.77
2018-11-06T16:44:27.884Z,53.07
2018-11-06T16:46:57.083Z,53.87
2018-11-06T16:49:26.094Z,55.63
2018-11-06T16:51:55.130Z,54.10
2018-11-06T16:54:24.084Z,51.43
2018-11-06T16:56:53.250Z,51.90
2018-11-06T16:59:22.312Z,52.53
2018-11-06T17:01:51.309Z,50.77
2018-11-06T17:04:20.386Z,48.90
2018-11-06T17:06:50.641Z,48.77
2018-11-06T17:09:20.636Z,49.03
2018-11-06T17:11:49.622Z,48.47
2018-11-06T17:14:18.612Z,46.30
2018-11-06T17:16:47.631Z,42.80
2018-11-06T17:19:16.623Z,40.17
2018-11-06T17:21:47.973Z,38.50
2018-11-06T17:24:17.017Z,37.53
2018-11-06T17:26:46.066Z,37.70
2018-11-06T17:29:15.022Z,35.30
2018-11-06T17:31:44.014Z,41.87
2018-11-06T17:34:13.184Z,41.13
2018-11-06T17:36:42.170Z,41.50
2018-11-06T17:39:12.561Z,39.43
2018-11-06T17:41:41.563Z,41.20
2018-11-06T17:44:10.541Z,40.33
2018-11-06T17:46:39.490Z,41.27
2018-11-06T17:49:08.493Z,40.53
2018-11-06T17:51:37.473Z,38.43
2018-11-06T17:54:06.587Z,35.97
2018-11-06T17:56:35.573Z,41.50
2018-11-06T17:59:04.948Z,38.80
2018-11-06T18:01:33.902Z,38.30
2018-11-06T18:04:02.927Z,39.87
2018-11-06T18:06:31.835Z,41.00
2018-11-06T18:09:01.108Z,43.80
2018-11-06T18:11:30.045Z,40.87
2018-11-06T18:13:59.026Z,40.17
2018-11-06T18:16:27.978Z,42.60
2018-11-06T18:18:56.973Z,38.83
2018-11-06T18:21:26.011Z,43.93
2018-11-06T18:23:55.031Z,44.00
2018-11-06T18:26:24.031Z,42.43
2018-11-06T18:28:53.097Z,42.70
2018-11-06T18:31:22.262Z,42.27
2018-11-06T18:33:51.318Z,43.37
2018-11-06T18:36:20.266Z,45.90
2018-11-06T18:38:49.245Z,46.67
2018-11-06T18:41:18.228Z,43.20
2018-11-06T18:43:47.363Z,42.83
2018-11-06T18:46:16.378Z,47.07
2018-11-06T18:48:45.648Z,44.77
2018-11-06T18:51:14.706Z,44.53
2018-11-06T18:53:43.729Z,47.53
2018-11-06T18:56:12.726Z,45.60
2018-11-06T18:58:41.770Z,48.63
2018-11-06T19:01:10.779Z,49.53
2018-11-06T19:03:45.081Z,49.77
2018-11-06T19:06:14.050Z,48.87
2018-11-06T19:08:43.039Z,49.93
2018-11-06T19:11:12.225Z,50.37
2018-11-06T19:13:41.321Z,46.67
2018-11-06T19:16:10.262Z,48.23
2018-11-06T19:18:39.273Z,48.87
2018-11-06T19:21:08.358Z,49.40
2018-11-06T19:23:37.559Z,46.10
2018-11-06T19:26:06.523Z,48.67
2018-11-06T19:28:35.516Z,45.80
2018-11-06T19:31:04.571Z,47.37
2018-11-06T19:33:33.550Z,45.07
2018-11-06T19:36:02.510Z,44.30
2018-11-06T19:38:31.614Z,44.00
2018-11-06T19:41:00.579Z,42.00
2018-11-06T19:43:29.597Z,40.87
2018-11-06T19:45:58.565Z,40.07
2018-11-06T19:48:27.592Z,37.13
2018-11-06T19:50:56.553Z,37.50
2018-11-06T19:53:25.613Z,36.77
2018-11-06T19:55:54.511Z,35.70
2018-11-06T19:58:23.499Z,36.83
2018-11-06T20:00:52.507Z,38.00
2018-11-06T20:03:21.496Z,36.37
2018-11-06T20:05:50.516Z,35.17
2018-11-06T20:08:19.423Z,33.67
2018-11-06T20:10:48.548Z,33.97
2018-11-06T20:13:17.662Z,33.50
2018-11-06T20:15:46.667Z,35.83
2018-11-06T20:18:15.629Z,35.40
2018-11-06T20:20:44.733Z,35.77
2018-11-06T20:23:13.726Z,29.87
2018-11-06T20:25:42.689Z,35.43
2018-11-06T20:28:11.686Z,35.20
2018-11-06T20:30:40.737Z,34.53
2018-11-06T20:33:09.816Z,31.97
2018-11-06T20:35:38.816Z,31.60
2018-11-06T20:38:07.791Z,32.53
2018-11-06T20:40:36.718Z,31.67
2018-11-06T20:43:05.861Z,31.17
2018-11-06T20:45:35.211Z,30.23
2018-11-06T20:48:04.199Z,31.03
2018-11-06T20:50:33.162Z,30.37
2018-11-06T20:53:02.216Z,28.60
2018-11-06T20:55:31.143Z,29.17
2018-11-06T20:58:00.091Z,27.33
2018-11-06T21:00:29.977Z,26.70
2018-11-06T21:03:01.239Z,24.73
2018-11-06T21:05:30.222Z,24.50
2018-11-06T21:07:59.233Z,24.60
2018-11-06T21:10:30.658Z,24.50
2018-11-06T21:12:59.811Z,23.50
2018-11-06T21:15:28.740Z,23.70
2018-11-06T21:17:57.819Z,24.97
2018-11-06T21:20:26.837Z,24.23
2018-11-06T21:22:55.721Z,23.57
2018-11-06T21:25:24.842Z,25.20
2018-11-06T21:27:53.690Z,25.00
2018-11-06T21:30:22.685Z,25.23
2018-11-06T21:32:52.761Z,24.67
2018-11-06T21:35:21.827Z,26.23
2018-11-06T21:37:50.921Z,26.13
2018-11-06T21:40:20.937Z,27.03
2018-11-06T21:42:50.585Z,28.23
2018-11-06T21:45:19.688Z,29.50
2018-11-06T21:47:49.433Z,29.37
2018-11-06T21:50:18.781Z,29.50
2018-11-06T21:52:48.051Z,29.70
2018-11-06T21:55:18.362Z,27.80
2018-11-06T21:57:47.370Z,26.80
2018-11-06T22:00:17.684Z,27.37
2018-11-06T22:02:46.609Z,25.50
2018-11-06T22:05:16.927Z,29.20
2018-11-06T22:07:46.141Z,29.27
2018-11-06T22:10:16.458Z,26.40
2018-11-06T22:12:45.891Z,23.93
2018-11-06T22:15:15.980Z,26.37
2018-11-06T22:17:44.950Z,25.20
2018-11-06T22:20:15.137Z,21.63
2018-11-06T22:22:44.753Z,23.57
2018-11-06T22:25:13.749Z,21.80
2018-11-06T22:27:43.110Z,19.87
2018-11-06T22:30:13.100Z,19.33
2018-11-06T22:32:42.838Z,17.23
2018-11-06T22:35:13.006Z,19.40
2018-11-06T22:37:42.101Z,20.53
2018-11-06T22:40:12.490Z,18.20
2018-11-06T22:42:41.545Z,16.53
2018-11-06T22:45:12.439Z,16.50
2018-11-06T22:47:41.700Z,14.40
2018-11-06T22:50:12.358Z,15.93
2018-11-06T22:52:41.517Z,15.17
2018-11-06T22:55:10.503Z,15.73
2018-11-06T22:57:39.552Z,15.47
2018-11-06T23:00:12.547Z,14.67
2018-11-06T23:02:41.846Z,13.83
2018-11-06T23:05:10.811Z,13.07
2018-11-06T23:07:45.022Z,13.20
2018-11-06T23:10:14.007Z,13.57
2018-11-06T23:12:43.234Z,11.80
2018-11-06T23:15:13.211Z,13.17
2018-11-06T23:17:42.223Z,13.30
2018-11-06T23:20:11.177Z,11.90
2018-11-06T23:22:40.238Z,11.43
2018-11-06T23:25:09.296Z,11.73
2018-11-06T23:27:38.194Z,11.20
2018-11-06T23:30:09.438Z,10.83
2018-11-06T23:32:38.416Z,11.60
2018-11-06T23:35:07.422Z,12.40
2018-11-06T23:37:36.483Z,13.33
2018-11-06T23:40:05.934Z,14.20
2018-11-06T23:42:34.886Z,13.77
2018-11-06T23:45:04.351Z,13.67
2018-11-06T23:47:33.481Z,14.70
2018-11-06T23:50:03.153Z,13.10
2018-11-06T23:52:32.120Z,13.13
2018-11-06T23:55:01.105Z,10.73
2018-11-06T23:57:30.461Z,11.17
